createdAt,value
2023-09-08T00:00:59.579Z,44.09
2023-09-08T00:03:26.772Z,44.35
2023-09-08T00:05:55.344Z,44.09
2023-09-08T00:08:23.617Z,44.12
2023-09-08T00:10:50.923Z,44.29
2023-09-08T00:13:18.052Z,44.14
2023-09-08T00:15:49.013Z,44.43
2023-09-08T00:18:16.304Z,44.55
2023-09-08T00:20:43.579Z,44.56
2023-09-08T00:23:10.913Z,44.29
2023-09-08T00:25:40.917Z,44.54
2023-09-08T00:28:08.196Z,44.28
2023-09-08T00:30:35.422Z,44.77
2023-09-08T00:33:02.961Z,44.72
2023-09-08T00:35:30.694Z,44.51
2023-09-08T00:37:58.216Z,44.37
2023-09-08T00:40:25.491Z,44.49
2023-09-08T00:42:54.318Z,44.37
2023-09-08T00:45:22.194Z,44.10
2023-09-08T00:47:49.686Z,44.14
2023-09-08T00:50:17.252Z,43.88
2023-09-08T00:52:44.529Z,44.21
2023-09-08T00:55:12.408Z,44.36
2023-09-08T00:57:39.773Z,44.62
2023-09-08T01:00:07.720Z,44.16
2023-09-08T01:02:35.210Z,44.25
2023-09-08T01:05:02.458Z,44.21
2023-09-08T01:07:31.845Z,44.23
2023-09-08T01:10:04.726Z,44.30
2023-09-08T01:12:32.033Z,44.26
2023-09-08T01:14:59.093Z,44.09
2023-09-08T01:17:27.193Z,44.10
2023-09-08T01:20:01.519Z,44.12
2023-09-08T01:22:28.993Z,44.32
2023-09-08T01:25:13.020Z,44.13
2023-09-08T01:27:45.012Z,44.37
2023-09-08T01:30:14.675Z,43.83
2023-09-08T01:32:42.867Z,43.91
2023-09-08T01:35:13.918Z,44.11
2023-09-08T01:37:43.223Z,44.24
2023-09-08T01:40:11.836Z,43.97
2023-09-08T01:42:40.189Z,44.22
2023-09-08T01:45:08.888Z,43.94
2023-09-08T01:47:36.560Z,44.11
2023-09-08T01:50:03.996Z,44.17
2023-09-08T01:52:34.081Z,44.09
2023-09-08T01:55:02.593Z,44.29
2023-09-08T01:57:32.326Z,44.04
2023-09-08T02:00:03.508Z,44.64
2023-09-08T02:02:39.857Z,44.71
2023-09-08T02:05:08.134Z,44.79
2023-09-08T02:07:35.431Z,45.36
2023-09-08T02:10:02.654Z,45.32
2023-09-08T02:12:30.215Z,45.27
2023-09-08T02:14:57.557Z,44.95
2023-09-08T02:17:24.770Z,45.51
2023-09-08T02:19:52.156Z,45.74
2023-09-08T02:22:19.865Z,45.41
2023-09-08T02:24:47.037Z,45.41
2023-09-08T02:27:14.254Z,45.65
2023-09-08T02:29:41.614Z,45.66
2023-09-08T02:32:09.030Z,45.67
2023-09-08T02:34:40.269Z,45.82
2023-09-08T02:37:08.491Z,45.77
2023-09-08T02:39:36.159Z,46.19
2023-09-08T02:42:03.553Z,45.61
2023-09-08T02:44:31.664Z,46.06
2023-09-08T02:46:58.883Z,45.46
2023-09-08T02:49:26.443Z,45.76
2023-09-08T02:51:54.304Z,45.68
2023-09-08T02:54:21.715Z,45.72
2023-09-08T02:56:48.824Z,45.93
2023-09-08T02:59:15.949Z,45.69
2023-09-08T03:01:43.670Z,45.71
2023-09-08T03:04:11.016Z,45.75
2023-09-08T03:06:38.240Z,45.84
2023-09-08T03:09:07.763Z,45.87
2023-09-08T03:11:35.549Z,45.64
2023-09-08T03:14:03.217Z,45.55
2023-09-08T03:16:31.876Z,45.56
2023-09-08T03:19:01.068Z,45.35
2023-09-08T03:21:28.352Z,45.54
2023-09-08T03:23:58.750Z,45.63
2023-09-08T03:26:26.244Z,45.21
2023-09-08T03:28:53.959Z,45.33
2023-09-08T03:31:21.344Z,45.68
2023-09-08T03:33:48.935Z,45.35
2023-09-08T03:36:16.970Z,45.75
2023-09-08T03:38:44.632Z,45.49
2023-09-08T03:41:12.587Z,45.70
2023-09-08T03:43:40.045Z,45.53
2023-09-08T03:46:07.690Z,45.91
2023-09-08T03:48:35.390Z,45.50
2023-09-08T03:51:02.846Z,45.87
2023-09-08T03:53:30.323Z,45.76
2023-09-08T03:55:57.759Z,45.62
2023-09-08T03:58:26.337Z,45.53
2023-09-08T04:00:54.223Z,45.81
2023-09-08T04:03:22.022Z,45.70
2023-09-08T04:05:50.408Z,45.75
2023-09-08T04:08:18.115Z,45.46
2023-09-08T04:10:45.470Z,45.53
2023-09-08T04:13:12.784Z,46.00
2023-09-08T04:15:40.251Z,46.04
2023-09-08T04:18:07.654Z,45.97
2023-09-08T04:20:35.264Z,45.92
2023-09-08T04:23:02.563Z,46.01
2023-09-08T04:25:30.001Z,46.01
2023-09-08T04:27:57.503Z,46.34
2023-09-08T04:30:25.168Z,45.87
2023-09-08T04:32:53.082Z,45.80
2023-09-08T04:35:24.952Z,45.88
2023-09-08T04:37:52.700Z,45.58
2023-09-08T04:40:20.741Z,45.73
2023-09-08T04:42:48.437Z,45.55
2023-09-08T04:45:21.270Z,46.35
2023-09-08T04:47:49.337Z,46.28
2023-09-08T04:50:19.777Z,45.88
2023-09-08T04:52:47.703Z,46.19
2023-09-08T04:55:16.566Z,46.15
2023-09-08T04:57:47.314Z,46.21
2023-09-08T05:00:15.284Z,45.63
2023-09-08T05:02:43.727Z,45.68
2023-09-08T05:05:14.976Z,45.98
2023-09-08T05:07:42.660Z,45.91
2023-09-08T05:10:10.750Z,46.20
2023-09-08T05:12:53.967Z,45.84
2023-09-08T05:15:22.932Z,45.80
2023-09-08T05:17:53.642Z,45.77
2023-09-08T05:20:26.275Z,46.34
2023-09-08T05:22:54.488Z,46.13
2023-09-08T05:25:22.243Z,45.47
2023-09-08T05:27:50.678Z,45.45
2023-09-08T05:30:19.501Z,44.73
2023-09-08T05:32:47.880Z,45.33
2023-09-08T05:35:18.476Z,44.76
2023-09-08T05:37:46.726Z,44.15
2023-09-08T05:40:15.178Z,44.67
2023-09-08T05:42:45.258Z,44.59
2023-09-08T05:45:13.538Z,44.22
2023-09-08T05:47:41.340Z,44.23
2023-09-08T05:50:12.768Z,44.50
2023-09-08T05:52:42.601Z,44.61
2023-09-08T05:55:20.588Z,44.40
2023-09-08T05:57:55.547Z,43.79
2023-09-08T06:00:24.887Z,44.17
2023-09-08T06:02:53.843Z,44.26
2023-09-08T06:05:22.396Z,43.93
2023-09-08T06:08:04.411Z,43.51
2023-09-08T06:10:35.346Z,43.62
2023-09-08T06:13:03.094Z,43.05
2023-09-08T06:15:31.940Z,43.12
2023-09-08T06:18:04.292Z,43.01
2023-09-08T06:20:33.082Z,42.71
2023-09-08T06:23:01.313Z,43.06
2023-09-08T06:25:29.978Z,43.09
2023-09-08T06:27:59.039Z,42.95
2023-09-08T06:30:29.880Z,42.91
2023-09-08T06:32:57.543Z,42.47
2023-09-08T06:35:27.919Z,42.66
2023-09-08T06:37:56.026Z,42.39
2023-09-08T06:40:23.566Z,42.54
2023-09-08T06:42:50.819Z,42.44
2023-09-08T06:45:27.647Z,42.07
2023-09-08T06:47:56.688Z,42.06
2023-09-08T06:50:25.850Z,42.17
2023-09-08T06:52:54.574Z,41.79
2023-09-08T06:55:22.200Z,41.68
2023-09-08T06:57:52.245Z,41.56
2023-09-08T07:00:21.966Z,41.75
2023-09-08T07:02:50.916Z,41.69
2023-09-08T07:05:19.395Z,41.79
2023-09-08T07:07:50.921Z,41.42
2023-09-08T07:10:18.450Z,41.26
2023-09-08T07:12:46.836Z,40.96
2023-09-08T07:15:16.851Z,40.63
2023-09-08T07:17:44.569Z,40.53
2023-09-08T07:20:12.396Z,40.40
2023-09-08T07:22:41.631Z,40.11
2023-09-08T07:25:11.293Z,40.13
2023-09-08T07:27:38.819Z,39.71
2023-09-08T07:30:07.763Z,39.61
2023-09-08T07:32:35.955Z,39.70
2023-09-08T07:35:03.667Z,39.93
2023-09-08T07:37:31.323Z,39.43
2023-09-08T07:39:59.394Z,39.74
2023-09-08T07:42:27.727Z,39.64
2023-09-08T07:44:55.341Z,39.75
2023-09-08T07:47:23.903Z,39.19
2023-09-08T07:49:51.290Z,39.36
2023-09-08T07:52:19.157Z,38.90
2023-09-08T07:54:46.840Z,39.17
2023-09-08T07:57:14.357Z,38.74
2023-09-08T07:59:43.222Z,38.71
2023-09-08T08:02:12.890Z,38.26
2023-09-08T08:04:40.822Z,38.21
2023-09-08T08:07:08.728Z,38.40
2023-09-08T08:09:36.847Z,38.19
2023-09-08T08:12:05.587Z,37.93
2023-09-08T08:14:33.746Z,37.73
2023-09-08T08:17:03.794Z,37.75
2023-09-08T08:19:34.792Z,37.02
2023-09-08T08:22:05.046Z,38.15
2023-09-08T08:24:33.334Z,37.60
2023-09-08T08:27:04.821Z,36.54
2023-09-08T08:29:39.840Z,36.08
2023-09-08T08:32:08.010Z,36.79
2023-09-08T08:34:38.886Z,36.71
2023-09-08T08:37:07.220Z,36.39
2023-09-08T08:39:36.516Z,36.22
2023-09-08T08:42:20.617Z,35.96
2023-09-08T08:44:57.651Z,36.27
2023-09-08T08:47:40.371Z,36.48
2023-09-08T08:50:12.556Z,36.06
2023-09-08T08:52:41.308Z,35.78
2023-09-08T08:55:17.410Z,36.21
2023-09-08T08:57:54.949Z,34.91
2023-09-08T09:00:27.427Z,34.40
2023-09-08T09:03:11.758Z,34.43
2023-09-08T09:05:48.862Z,34.39
2023-09-08T09:08:19.852Z,33.75
2023-09-08T09:10:48.313Z,33.87
2023-09-08T09:13:16.009Z,33.86
2023-09-08T09:15:49.065Z,34.05
2023-09-08T09:18:17.423Z,33.96
2023-09-08T09:21:00.949Z,33.76
2023-09-08T09:23:38.142Z,34.21
2023-09-08T09:26:06.361Z,34.70
2023-09-08T09:28:34.719Z,34.91
2023-09-08T09:31:03.664Z,34.65
2023-09-08T09:33:38.105Z,35.15
2023-09-08T09:36:08.971Z,34.97
2023-09-08T09:38:37.304Z,34.90
2023-09-08T09:41:06.048Z,34.53
2023-09-08T09:43:35.584Z,34.66
2023-09-08T09:46:03.661Z,34.86
2023-09-08T09:48:35.551Z,34.55
2023-09-08T09:51:21.351Z,34.45
2023-09-08T09:53:52.620Z,34.44
2023-09-08T09:56:22.058Z,34.33
2023-09-08T09:58:52.450Z,34.14
2023-09-08T10:01:20.993Z,33.28
2023-09-08T10:03:50.379Z,33.08
2023-09-08T10:06:21.824Z,32.72
2023-09-08T10:08:50.238Z,32.81
2023-09-08T10:11:22.922Z,32.40
2023-09-08T10:13:58.910Z,32.09
2023-09-08T10:16:32.421Z,31.71
2023-09-08T10:19:01.324Z,32.00
2023-09-08T10:21:32.109Z,30.79
2023-09-08T10:24:10.691Z,31.33
2023-09-08T10:26:51.170Z,29.80
2023-09-08T10:29:22.830Z,28.89
2023-09-08T10:31:51.250Z,29.80
2023-09-08T10:34:22.983Z,30.85
2023-09-08T10:36:50.561Z,31.11
2023-09-08T10:39:47.013Z,30.37
2023-09-08T10:42:22.784Z,29.83
2023-09-08T10:44:52.868Z,29.82
2023-09-08T10:47:28.226Z,29.74
2023-09-08T10:50:01.646Z,28.90
2023-09-08T10:52:29.278Z,28.94
2023-09-08T10:54:59.656Z,28.83
2023-09-08T10:57:27.142Z,27.71
2023-09-08T11:00:02.132Z,28.04
2023-09-08T11:02:57.837Z,28.33
2023-09-08T11:05:25.403Z,28.68
2023-09-08T11:07:55.820Z,29.27
2023-09-08T11:10:24.818Z,29.11
2023-09-08T11:12:52.964Z,28.67
2023-09-08T11:15:24.032Z,28.83
2023-09-08T11:17:53.933Z,28.87
2023-09-08T11:20:29.130Z,29.04
2023-09-08T11:23:03.969Z,27.77
2023-09-08T11:25:31.533Z,27.79
2023-09-08T11:28:00.885Z,27.29
2023-09-08T11:30:29.357Z,26.48
2023-09-08T11:33:00.212Z,26.21
2023-09-08T11:35:28.757Z,26.61
2023-09-08T11:38:03.119Z,24.53
2023-09-08T11:40:37.024Z,24.39
2023-09-08T11:43:07.031Z,25.85
2023-09-08T11:45:42.129Z,26.21
2023-09-08T11:48:11.719Z,26.37
2023-09-08T11:50:39.034Z,26.33
2023-09-08T11:53:11.868Z,26.77
2023-09-08T11:55:39.769Z,26.79
2023-09-08T11:58:07.458Z,27.18
2023-09-08T12:00:36.027Z,27.17
2023-09-08T12:03:14.414Z,28.30
2023-09-08T12:05:43.583Z,28.32
2023-09-08T12:08:11.181Z,29.46
2023-09-08T12:10:57.519Z,29.73
2023-09-08T12:13:27.697Z,28.89
2023-09-08T12:15:55.045Z,29.99
2023-09-08T12:18:40.311Z,29.53
2023-09-08T12:21:08.003Z,29.95
2023-09-08T12:23:56.407Z,30.79
2023-09-08T12:26:28.337Z,30.75
2023-09-08T12:28:55.629Z,30.13
2023-09-08T12:31:27.085Z,30.47
2023-09-08T12:33:54.606Z,30.19
2023-09-08T12:36:22.101Z,30.19
2023-09-08T12:38:51.798Z,30.24
2023-09-08T12:41:21.746Z,31.32
2023-09-08T12:43:55.281Z,34.08
2023-09-08T12:46:24.389Z,33.02
2023-09-08T12:48:57.913Z,33.07
2023-09-08T12:51:25.529Z,32.18
2023-09-08T12:53:55.874Z,32.43
2023-09-08T12:56:26.214Z,31.30
2023-09-08T12:58:56.577Z,31.67
2023-09-08T13:01:25.729Z,32.59
2023-09-08T13:04:01.243Z,32.25
2023-09-08T13:06:31.665Z,31.55
2023-09-08T13:09:06.449Z,32.91
2023-09-08T13:11:34.093Z,33.85
2023-09-08T13:14:06.658Z,35.09
2023-09-08T13:16:35.348Z,35.08
2023-09-08T13:19:05.083Z,36.82
2023-09-08T13:21:38.863Z,37.66
2023-09-08T13:24:09.390Z,36.07
2023-09-08T13:26:39.312Z,34.92
2023-09-08T13:29:21.449Z,34.22
2023-09-08T13:32:03.958Z,34.68
2023-09-08T13:34:40.205Z,34.65
2023-09-08T13:37:12.126Z,36.65
2023-09-08T13:39:45.442Z,36.80
2023-09-08T13:42:30.142Z,36.49
2023-09-08T13:45:04.895Z,36.52
2023-09-08T13:47:56.842Z,34.87
2023-09-08T13:50:27.259Z,36.30
2023-09-08T13:53:04.417Z,36.12
2023-09-08T13:55:43.924Z,36.52
2023-09-08T13:58:15.374Z,36.52
2023-09-08T14:00:46.774Z,37.73
2023-09-08T14:05:55.111Z,38.73
2023-09-08T14:08:51.909Z,37.64
2023-09-08T14:11:42.466Z,39.71
2023-09-08T14:14:20.433Z,39.75
2023-09-08T14:16:49.249Z,40.10
2023-09-08T14:19:16.757Z,39.80
2023-09-08T14:21:49.261Z,41.21
2023-09-08T14:24:35.601Z,39.70
2023-09-08T14:27:07.258Z,39.91
2023-09-08T14:29:40.147Z,39.61
2023-09-08T14:32:10.816Z,40.38
2023-09-08T14:34:41.057Z,40.44
2023-09-08T14:37:13.296Z,41.73
2023-09-08T14:39:41.437Z,40.46
2023-09-08T14:42:09.956Z,39.70
2023-09-08T14:44:39.737Z,40.40
2023-09-08T14:47:07.375Z,41.96
2023-09-08T14:49:41.514Z,43.38
2023-09-08T14:52:13.862Z,41.80
2023-09-08T14:54:48.130Z,41.51
2023-09-08T14:57:16.028Z,40.26
2023-09-08T14:59:43.717Z,41.71
2023-09-08T15:02:28.058Z,40.42
2023-09-08T15:05:07.917Z,41.43
2023-09-08T15:07:45.044Z,43.06
2023-09-08T15:10:21.879Z,42.21
2023-09-08T15:12:52.144Z,41.78
2023-09-08T15:15:25.174Z,42.25
2023-09-08T15:18:04.616Z,41.22
2023-09-08T15:20:34.730Z,40.75
2023-09-08T15:23:11.992Z,40.87
2023-09-08T15:25:42.462Z,42.83
2023-09-08T15:28:19.868Z,41.85
2023-09-08T15:30:57.354Z,40.59
2023-09-08T15:33:29.753Z,42.04
2023-09-08T15:35:59.928Z,41.59
2023-09-08T15:38:35.707Z,41.52
2023-09-08T15:41:12.722Z,42.81
2023-09-08T15:43:46.513Z,42.63
2023-09-08T15:46:14.663Z,42.55
2023-09-08T15:48:45.465Z,43.93
2023-09-08T15:51:14.364Z,43.47
2023-09-08T15:53:45.706Z,43.37
2023-09-08T15:56:15.025Z,43.42
2023-09-08T15:58:48.653Z,43.60
2023-09-08T16:01:20.109Z,43.38
2023-09-08T16:03:53.475Z,43.24
2023-09-08T16:06:21.082Z,43.94
2023-09-08T16:08:51.635Z,43.66
2023-09-08T16:11:19.193Z,43.54
2023-09-08T16:13:48.058Z,43.86
2023-09-08T16:16:27.152Z,43.25
2023-09-08T16:19:00.412Z,43.40
2023-09-08T16:21:28.073Z,46.02
2023-09-08T16:24:02.497Z,44.90
2023-09-08T16:26:30.297Z,44.65
2023-09-08T16:29:00.495Z,45.59
2023-09-08T16:31:28.666Z,45.21
2023-09-08T16:33:56.082Z,45.73
2023-09-08T16:36:24.791Z,45.66
2023-09-08T16:38:52.071Z,45.18
2023-09-08T16:41:19.483Z,44.61
2023-09-08T16:43:50.586Z,44.75
2023-09-08T16:46:18.673Z,46.08
2023-09-08T16:48:46.363Z,45.17
2023-09-08T16:51:18.732Z,45.50
2023-09-08T16:53:46.332Z,46.73
2023-09-08T16:56:13.844Z,45.74
2023-09-08T16:58:41.253Z,46.80
2023-09-08T17:01:08.726Z,46.33
2023-09-08T17:03:36.355Z,47.12
2023-09-08T17:06:04.207Z,45.26
2023-09-08T17:08:31.779Z,46.89
2023-09-08T17:11:09.344Z,46.73
2023-09-08T17:13:37.320Z,46.35
2023-09-08T17:16:05.274Z,46.61
2023-09-08T17:18:33.252Z,46.36
2023-09-08T17:21:01.909Z,45.99
2023-09-08T17:23:32.664Z,46.75
2023-09-08T17:26:07.746Z,47.50
2023-09-08T17:28:37.685Z,47.45
2023-09-08T17:31:12.598Z,47.41
2023-09-08T17:33:48.221Z,47.83
2023-09-08T17:36:18.576Z,47.82
2023-09-08T17:38:46.508Z,48.45
2023-09-08T17:41:16.143Z,47.21
2023-09-08T17:43:44.465Z,48.50
2023-09-08T17:46:14.215Z,47.50
2023-09-08T17:48:45.206Z,46.77
2023-09-08T17:51:18.344Z,46.87
2023-09-08T17:53:50.804Z,47.18
2023-09-08T17:56:23.577Z,47.96
2023-09-08T17:58:58.698Z,47.50
2023-09-08T18:01:31.559Z,47.75
2023-09-08T18:04:01.133Z,47.76
2023-09-08T18:06:29.829Z,48.27
2023-09-08T18:08:58.774Z,48.11
2023-09-08T18:11:32.622Z,48.43
2023-09-08T18:14:02.080Z,47.51
2023-09-08T18:16:36.844Z,48.23
2023-09-08T18:19:06.144Z,47.62
2023-09-08T18:21:36.710Z,48.62
2023-09-08T18:24:05.274Z,48.43
2023-09-08T18:26:38.967Z,48.72
2023-09-08T18:29:17.371Z,48.22
2023-09-08T18:31:45.518Z,48.25
2023-09-08T18:34:17.503Z,48.33
2023-09-08T18:36:46.201Z,49.02
2023-09-08T18:39:17.463Z,49.00
2023-09-08T18:41:48.086Z,48.77
2023-09-08T18:44:17.411Z,49.37
2023-09-08T18:46:46.179Z,48.74
2023-09-08T18:49:14.776Z,48.26
2023-09-08T18:51:42.631Z,47.68
2023-09-08T18:54:14.139Z,47.91
2023-09-08T18:56:42.935Z,47.44
2023-09-08T18:59:11.150Z,47.50
2023-09-08T19:01:39.612Z,48.30
2023-09-08T19:04:09.763Z,48.31
2023-09-08T19:06:40.870Z,48.40
2023-09-08T19:09:09.974Z,48.14
2023-09-08T19:11:37.906Z,47.37
2023-09-08T19:14:07.522Z,48.69
2023-09-08T19:16:39.394Z,49.15
2023-09-08T19:19:07.235Z,48.49
2023-09-08T19:21:39.577Z,48.58
2023-09-08T19:24:07.665Z,49.71
2023-09-08T19:26:37.333Z,48.84
2023-09-08T19:29:09.727Z,48.39
2023-09-08T19:31:38.183Z,48.26
2023-09-08T19:34:11.405Z,48.30
2023-09-08T19:36:42.959Z,49.05
2023-09-08T19:39:10.833Z,48.90
2023-09-08T19:41:41.097Z,48.47
2023-09-08T19:44:12.577Z,49.11
2023-09-08T19:46:42.256Z,48.43
2023-09-08T19:49:11.713Z,48.45
2023-09-08T19:51:42.380Z,48.70
2023-09-08T19:54:13.757Z,48.63
2023-09-08T19:56:42.069Z,48.06
2023-09-08T19:59:11.963Z,48.15
2023-09-08T20:01:44.792Z,47.73
2023-09-08T20:04:17.659Z,48.34
2023-09-08T20:06:50.044Z,48.48
2023-09-08T20:09:19.544Z,48.27
2023-09-08T20:11:48.566Z,47.96
2023-09-08T20:14:20.894Z,48.06
2023-09-08T20:16:53.592Z,48.06
2023-09-08T20:19:22.163Z,48.32
2023-09-08T20:21:53.711Z,48.20
2023-09-08T20:24:21.187Z,47.89
2023-09-08T20:26:54.074Z,47.83
2023-09-08T20:29:21.704Z,47.98
2023-09-08T20:31:50.541Z,47.92
2023-09-08T20:34:18.063Z,47.60
2023-09-08T20:36:45.950Z,47.80
2023-09-08T20:39:14.073Z,48.19
2023-09-08T20:41:47.614Z,48.15
2023-09-08T20:44:18.340Z,47.83
2023-09-08T20:46:47.905Z,47.92
2023-09-08T20:49:15.197Z,47.92
2023-09-08T20:51:42.592Z,48.05
2023-09-08T20:54:09.992Z,48.12
2023-09-08T20:56:37.567Z,48.44
2023-09-08T20:59:06.128Z,48.65
2023-09-08T21:01:33.721Z,48.63
2023-09-08T21:04:01.600Z,48.50
2023-09-08T21:06:30.265Z,48.27
2023-09-08T21:08:57.581Z,47.95
2023-09-08T21:11:25.868Z,48.50
2023-09-08T21:13:53.543Z,48.63
2023-09-08T21:16:21.079Z,49.05
2023-09-08T21:18:51.808Z,48.82
2023-09-08T21:21:19.546Z,48.85
2023-09-08T21:23:46.905Z,48.77
2023-09-08T21:26:20.452Z,49.24
2023-09-08T21:28:48.619Z,49.20
2023-09-08T21:31:19.850Z,49.12
2023-09-08T21:33:50.681Z,48.82
2023-09-08T21:36:19.520Z,48.87
2023-09-08T21:38:46.847Z,48.75
2023-09-08T21:41:14.835Z,49.17
2023-09-08T21:43:42.241Z,48.88
2023-09-08T21:46:11.170Z,49.50
2023-09-08T21:48:40.190Z,49.32
2023-09-08T21:51:07.941Z,49.29
2023-09-08T21:53:35.197Z,49.11
2023-09-08T21:56:02.463Z,49.34
2023-09-08T21:58:30.153Z,49.59
2023-09-08T22:00:57.545Z,49.48
2023-09-08T22:03:24.976Z,49.74
2023-09-08T22:05:52.660Z,49.65
2023-09-08T22:08:20.054Z,49.89
2023-09-08T22:10:47.725Z,49.74
2023-09-08T22:13:14.933Z,49.56
2023-09-08T22:15:42.294Z,49.37
2023-09-08T22:18:11.160Z,49.60
2023-09-08T22:20:38.926Z,50.15
2023-09-08T22:23:06.117Z,49.42
2023-09-08T22:25:35.233Z,49.65
2023-09-08T22:28:02.733Z,50.18
2023-09-08T22:30:30.273Z,49.80
2023-09-08T22:32:57.830Z,50.19
2023-09-08T22:35:25.139Z,50.14
2023-09-08T22:37:52.935Z,50.06
2023-09-08T22:40:20.497Z,50.17
2023-09-08T22:42:47.867Z,50.48
2023-09-08T22:45:15.213Z,50.03
2023-09-08T22:47:42.748Z,50.57
2023-09-08T22:50:13.577Z,50.80
2023-09-08T22:52:44.141Z,50.00
2023-09-08T22:55:23.430Z,50.31
2023-09-08T22:57:52.133Z,51.01
2023-09-08T23:00:19.485Z,51.11
2023-09-08T23:02:48.309Z,50.73
2023-09-08T23:05:16.020Z,50.92
2023-09-08T23:07:46.782Z,50.74
2023-09-08T23:10:14.268Z,51.46
2023-09-08T23:12:42.002Z,50.77
2023-09-08T23:15:11.304Z,51.06
2023-09-08T23:17:39.248Z,50.69
2023-09-08T23:20:16.951Z,50.74
2023-09-08T23:22:45.288Z,51.18
2023-09-08T23:25:12.762Z,50.34
2023-09-08T23:27:39.993Z,50.66
2023-09-08T23:30:08.055Z,50.30
2023-09-08T23:32:35.442Z,50.48
2023-09-08T23:35:05.176Z,50.40
2023-09-08T23:37:36.512Z,50.33
2023-09-08T23:40:06.292Z,50.92
2023-09-08T23:42:33.728Z,50.69
2023-09-08T23:45:01.021Z,51.06
2023-09-08T23:47:28.422Z,51.04
2023-09-08T23:49:55.750Z,50.65
2023-09-08T23:52:22.886Z,50.69
2023-09-08T23:54:50.249Z,50.74
2023-09-08T23:57:17.504Z,51.05
2023-09-08T23:59:45.346Z,51.43
